KCHO/CHO METAR and TAF weather

Enter ICAO airport designator
Station Type Date Time Source
KCHO METAR 2020/03/28 19:53 UTC NOAA

KCHO 281953Z 07005KT 10SM CLR 21/14 A2987 RMK AO2 SLP109 T02110139


Station Type Date Time Source
KCHO Decoded METAR 2020/03/28 19:53 UTC NOAA

CHARLOTTESVILLE-ALBEMARLE, VA, United States (KCHO) 38-08N 078-27W 192M
Mar 28, 2020 - 03:53 PM EDT / 2020.03.28 1953 UTC
Wind: from the ENE (070 degrees) at 6 MPH (5 KT):0
Visibility: 10 mile(s):0
Sky conditions: clear
Temperature: 70.0 F (21.1 C)
Dew Point: 57.0 F (13.9 C)
Relative Humidity: 63%
Pressure (altimeter): 29.87 in. Hg (1011 hPa)
ob: KCHO 281953Z 07005KT 10SM CLR 21/14 A2987 RMK AO2 SLP109 T02110139
cycle: 20

Station Type Date Time Source
KCHO TAF 2020/03/28 18:36 UTC NOAA

TAF KCHO 281734Z 2818/2918 15004KT P6SM BKN025
FM282000 16005KT P6SM BKN140
FM290600 VRB03KT 6SM BR BKN003
FM291300 19004KT P6SM BKN015
FM291600 20007KT P6SM BKN070

Example: see airport list